createdAt,value
2023-03-01T00:02:33.824Z,10.40
2023-03-01T00:07:36.941Z,8.10
2023-03-01T00:12:40.010Z,10.60
2023-03-01T00:17:43.033Z,10.40
2023-03-01T00:22:47.216Z,9.40
2023-03-01T00:27:53.606Z,11.20
2023-03-01T00:32:56.501Z,10.70
2023-03-01T00:38:00.638Z,11.40
2023-03-01T00:43:04.528Z,11.20
2023-03-01T00:48:07.667Z,9.90
2023-03-01T00:53:10.544Z,10.20
2023-03-01T00:58:13.348Z,10.10
2023-03-01T01:03:16.125Z,10.60
2023-03-01T01:08:20.017Z,9.60
2023-03-01T01:13:23.844Z,10.10
2023-03-01T01:18:27.273Z,10.30
2023-03-01T01:23:30.602Z,8.90
2023-03-01T01:28:34.427Z,9.70
2023-03-01T01:38:39.908Z,10.70
2023-03-01T01:43:46.390Z,9.70
2023-03-01T01:48:53.923Z,9.70
2023-03-01T01:54:03.301Z,9.90
2023-03-01T01:59:06.451Z,11.70
2023-03-01T02:04:09.431Z,11.10
2023-03-01T02:09:16.986Z,9.60
2023-03-01T02:14:20.294Z,9.60
2023-03-01T02:19:49.107Z,10.50
2023-03-01T02:25:01.287Z,12.00
2023-03-01T02:30:05.008Z,9.30
2023-03-01T02:35:10.619Z,9.80
2023-03-01T02:40:19.101Z,9.60
2023-03-01T02:45:22.746Z,11.50
2023-03-01T02:50:31.611Z,10.50
2023-03-01T02:55:34.468Z,12.30
2023-03-01T03:00:41.629Z,10.00
2023-03-01T03:05:45.582Z,10.00
2023-03-01T03:10:48.443Z,8.70
2023-03-01T03:15:51.315Z,10.10
2023-03-01T03:20:54.797Z,9.90
2023-03-01T03:25:57.626Z,11.50
2023-03-01T03:31:04.832Z,10.60
2023-03-01T03:36:08.113Z,9.30
2023-03-01T03:41:11.248Z,11.00
2023-03-01T03:46:14.313Z,13.60
2023-03-01T03:51:19.662Z,10.40
2023-03-01T03:56:28.590Z,10.90
2023-03-01T04:01:32.390Z,10.60
2023-03-01T04:06:35.291Z,10.50
2023-03-01T04:11:39.924Z,10.70
2023-03-01T04:16:43.508Z,10.90
2023-03-01T04:21:46.297Z,10.40
2023-03-01T04:26:49.075Z,12.40
2023-03-01T04:31:51.893Z,10.90
2023-03-01T04:36:55.048Z,12.90
2023-03-01T04:41:58.384Z,10.10
2023-03-01T04:47:01.153Z,12.90
2023-03-01T04:52:04.885Z,12.00
2023-03-01T04:57:07.705Z,8.30
2023-03-01T05:02:10.509Z,11.80
2023-03-01T05:07:14.192Z,11.30
2023-03-01T05:12:17.053Z,12.00
2023-03-01T05:17:20.084Z,11.80
2023-03-01T05:22:24.485Z,11.30
2023-03-01T05:27:27.290Z,13.00
2023-03-01T05:32:33.229Z,13.30
2023-03-01T05:37:36.955Z,12.20
2023-03-01T05:42:40.252Z,12.60
2023-03-01T05:47:45.501Z,11.50
2023-03-01T05:52:57.468Z,8.00
2023-03-01T05:58:02.199Z,10.10
2023-03-01T06:03:05.101Z,9.10
2023-03-01T06:08:08.165Z,10.20
2023-03-01T06:13:10.988Z,9.30
2023-03-01T06:18:13.750Z,7.40
2023-03-01T06:23:16.504Z,7.70
2023-03-01T06:28:19.529Z,9.40
2023-03-01T06:33:24.693Z,8.50
2023-03-01T06:38:27.502Z,9.80
2023-03-01T06:43:30.305Z,11.20
2023-03-01T06:48:33.878Z,12.40
2023-03-01T06:53:37.240Z,10.40
2023-03-01T06:58:40.017Z,11.60
2023-03-01T07:03:45.795Z,10.60
2023-03-01T07:08:48.967Z,7.30
2023-03-01T07:13:55.622Z,8.50
2023-03-01T07:18:59.794Z,7.20
2023-03-01T07:24:02.647Z,11.20
2023-03-01T07:29:07.369Z,12.40
2023-03-01T07:34:10.388Z,11.00
2023-03-01T07:39:13.377Z,9.00
2023-03-01T07:44:17.511Z,13.90
2023-03-01T07:49:21.500Z,10.50
2023-03-01T07:54:25.065Z,12.90
2023-03-01T07:59:30.265Z,10.20
2023-03-01T08:04:35.988Z,13.70
2023-03-01T08:09:39.055Z,13.60
2023-03-01T08:14:41.873Z,13.10
2023-03-01T08:19:44.716Z,12.90
2023-03-01T08:24:48.822Z,12.30
2023-03-01T08:29:52.031Z,11.60
2023-03-01T08:34:58.280Z,11.80
2023-03-01T08:40:03.052Z,10.10
2023-03-01T08:45:13.935Z,11.00
2023-03-01T08:50:17.895Z,11.40
2023-03-01T08:55:20.732Z,11.80
2023-03-01T09:00:24.208Z,11.60
2023-03-01T09:05:27.217Z,10.70
2023-03-01T09:10:31.962Z,10.70
2023-03-01T09:15:46.869Z,12.70
2023-03-01T09:20:57.116Z,12.70
2023-03-01T09:26:01.704Z,13.80
2023-03-01T09:31:05.678Z,12.30
2023-03-01T09:36:16.039Z,12.40
2023-03-01T09:41:35.302Z,9.90
2023-03-01T09:46:44.767Z,11.80
2023-03-01T09:52:04.541Z,10.40
2023-03-01T09:57:31.959Z,11.40
2023-03-01T10:03:01.008Z,11.50
2023-03-01T10:08:45.287Z,10.50
2023-03-01T10:14:18.439Z,8.80
2023-03-01T10:19:27.454Z,12.00
2023-03-01T10:24:35.287Z,11.20
2023-03-01T10:29:45.756Z,12.00
2023-03-01T10:34:49.247Z,12.60
2023-03-01T10:40:09.976Z,13.80
2023-03-01T10:45:35.423Z,14.20
2023-03-01T10:50:42.268Z,12.20
2023-03-01T10:55:48.587Z,11.30
2023-03-01T11:00:52.465Z,10.60
2023-03-01T11:06:06.658Z,12.20
2023-03-01T11:11:19.235Z,13.00
2023-03-01T11:16:32.828Z,13.20
2023-03-01T11:21:53.966Z,11.30
2023-03-01T11:26:58.896Z,11.40
2023-03-01T11:32:10.339Z,12.20
2023-03-01T11:37:43.244Z,10.20
2023-03-01T11:43:08.123Z,11.30
2023-03-01T11:48:52.094Z,10.30
2023-03-01T11:54:36.581Z,9.60
2023-03-01T12:00:05.480Z,10.00
2023-03-01T12:05:34.309Z,11.60
2023-03-01T12:10:45.960Z,9.00
2023-03-01T12:16:14.490Z,8.70
2023-03-01T12:21:48.192Z,7.50
2023-03-01T12:27:08.791Z,8.30
2023-03-01T12:32:34.646Z,8.40
2023-03-01T12:38:19.100Z,5.80
2023-03-01T12:43:55.471Z,7.00
2023-03-01T12:49:01.313Z,7.30
2023-03-01T12:54:32.254Z,7.80
2023-03-01T12:59:52.274Z,5.40
2023-03-01T13:05:07.736Z,6.20
2023-03-01T13:10:38.142Z,6.10
2023-03-01T13:15:43.854Z,7.10
2023-03-01T13:20:49.972Z,7.30
2023-03-01T13:26:18.197Z,6.90
2023-03-01T13:31:21.160Z,6.20
2023-03-01T13:36:48.075Z,6.50
2023-03-01T13:41:53.870Z,7.40
2023-03-01T13:47:18.734Z,6.20
2023-03-01T13:52:43.833Z,6.90
2023-03-01T13:58:01.988Z,6.80
2023-03-01T14:03:07.488Z,6.80
2023-03-01T14:08:23.435Z,7.30
2023-03-01T14:13:47.912Z,7.90
2023-03-01T14:19:32.543Z,7.30
2023-03-01T14:24:41.542Z,6.10
2023-03-01T14:29:57.178Z,5.50
2023-03-01T14:35:01.568Z,5.50
2023-03-01T14:40:22.875Z,6.60
2023-03-01T14:45:28.000Z,4.90
2023-03-01T14:50:42.537Z,4.90
2023-03-01T14:56:05.524Z,4.10
2023-03-01T15:01:11.937Z,8.00
2023-03-01T15:06:20.648Z,7.90
2023-03-01T15:11:34.388Z,6.90
2023-03-01T15:16:42.439Z,5.70
2023-03-01T15:21:49.894Z,8.50
2023-03-01T15:26:58.917Z,7.30
2023-03-01T15:32:05.185Z,7.40
2023-03-01T15:37:49.688Z,6.00
2023-03-01T15:42:53.582Z,10.40
2023-03-01T15:48:07.229Z,11.70
2023-03-01T15:53:15.783Z,12.90
2023-03-01T15:58:26.034Z,10.00
2023-03-01T16:03:29.610Z,9.90
2023-03-01T16:08:32.716Z,8.70
2023-03-01T16:13:35.736Z,10.50
2023-03-01T16:18:39.844Z,11.30
2023-03-01T16:23:51.108Z,10.20
2023-03-01T16:35:57.862Z,12.80
2023-03-01T16:41:54.569Z,11.00
2023-03-01T16:52:40.140Z,12.00
2023-03-01T16:57:43.850Z,15.00
2023-03-01T17:02:46.790Z,18.00
2023-03-01T17:07:49.918Z,15.00
2023-03-01T17:12:52.776Z,15.90
2023-03-01T17:23:44.682Z,21.90
2023-03-01T17:35:12.188Z,28.20
2023-03-01T17:40:16.559Z,25.20
2023-03-01T17:45:19.450Z,30.00
2023-03-01T17:50:22.377Z,23.50
2023-03-01T17:55:25.314Z,24.20
2023-03-01T18:00:28.975Z,25.80
2023-03-01T18:05:38.749Z,27.10
2023-03-01T18:10:48.942Z,26.00
2023-03-01T18:16:01.435Z,28.30
2023-03-01T18:21:04.987Z,28.90
2023-03-01T18:26:12.602Z,29.90
2023-03-01T18:31:22.515Z,29.70
2023-03-01T18:36:30.029Z,27.10
2023-03-01T18:41:34.711Z,24.70
2023-03-01T18:46:41.080Z,22.50
2023-03-01T18:51:45.567Z,28.80
2023-03-01T18:56:48.740Z,26.00
2023-03-01T19:01:54.049Z,30.50
2023-03-01T19:06:56.928Z,29.60
2023-03-01T19:12:02.192Z,28.60
2023-03-01T19:17:05.434Z,25.40
2023-03-01T19:22:08.376Z,19.20
2023-03-01T19:27:11.714Z,25.60
2023-03-01T19:32:15.086Z,23.40
2023-03-01T19:37:17.971Z,19.00
2023-03-01T19:42:21.105Z,21.90
2023-03-01T19:47:24.151Z,21.90
2023-03-01T19:52:26.984Z,21.70
2023-03-01T19:57:29.770Z,22.80
2023-03-01T20:02:32.710Z,22.50
2023-03-01T20:07:35.742Z,23.00
2023-03-01T20:12:40.248Z,21.40
2023-03-01T20:17:43.162Z,22.80
2023-03-01T20:22:46.241Z,23.00
2023-03-01T20:27:52.309Z,23.70
2023-03-01T20:32:55.980Z,26.00
2023-03-01T20:37:59.498Z,32.00
2023-03-01T20:43:02.425Z,33.40
2023-03-01T20:48:07.024Z,26.80
2023-03-01T20:53:09.974Z,18.10
2023-03-01T20:58:13.339Z,16.00
2023-03-01T21:03:16.443Z,16.10
2023-03-01T21:08:19.663Z,16.90
2023-03-01T21:13:27.070Z,15.00
2023-03-01T21:18:31.827Z,16.40
2023-03-01T21:23:36.601Z,17.30
2023-03-01T21:28:42.468Z,20.90
2023-03-01T21:33:54.088Z,23.20
2023-03-01T21:38:59.444Z,24.80
2023-03-01T21:44:04.636Z,23.70
2023-03-01T21:49:08.937Z,26.50
2023-03-01T21:54:14.178Z,21.50
2023-03-01T21:59:20.358Z,21.60
2023-03-01T22:04:25.233Z,25.60
2023-03-01T22:09:28.195Z,22.90
2023-03-01T22:14:32.622Z,24.60
2023-03-01T22:19:35.421Z,22.70
2023-03-01T22:24:38.305Z,23.30
2023-03-01T22:29:41.174Z,19.90
2023-03-01T22:34:44.078Z,16.70
2023-03-01T22:39:46.893Z,15.30
2023-03-01T22:44:49.794Z,10.00
2023-03-01T22:49:56.908Z,14.60
2023-03-01T23:00:07.958Z,10.20
2023-03-01T23:05:11.158Z,9.20
2023-03-01T23:10:15.541Z,9.20
2023-03-01T23:15:18.392Z,5.40
2023-03-01T23:20:21.648Z,3.00
2023-03-01T23:25:25.562Z,3.20
2023-03-01T23:30:28.543Z,2.40
2023-03-01T23:35:31.496Z,2.80
2023-03-01T23:40:34.346Z,2.40
2023-03-01T23:45:43.846Z,2.00
2023-03-01T23:50:47.327Z,1.50
2023-03-01T23:55:53.226Z,2.20
